Time;durP1;ratioP1;P1;durP2;ratioP2;P2;SDS_P1;SDS_P2;PMS_P1;PMS_P2;Temp;Humidity;BMP_temperature;BMP_pressure;BME280_temperature;BME280_humidity;BME280_pressure;Samples;Min_cycle;Max_cycle;Signal;HPM_P1;HPM_P2
2021/09/09 00:06:17;;;;;;;23.10;20.40;;;;;;;12.66;68.95;99925.98;460168;1195;142708;-61
2021/09/09 00:16:20;;;;;;;24.00;18.60;;;;;;;12.49;69.35;99919.54;473082;1191;142898;-61
2021/09/09 00:26:23;;;;;;;23.30;18.90;;;;;;;12.44;69.87;99922.20;470383;1185;142555;-61
2021/09/09 00:36:27;;;;;;;20.40;17.80;;;;;;;12.35;69.98;99923.81;464099;1194;142338;-61
2021/09/09 00:46:31;;;;;;;20.60;16.50;;;;;;;12.30;70.08;99922.93;472904;1194;142907;-61
2021/09/09 00:56:35;;;;;;;17.10;15.30;;;;;;;12.23;69.88;99920.02;471604;1186;142812;-61
2021/09/09 01:06:39;;;;;;;25.50;18.90;;;;;;;12.46;71.22;99917.45;470577;1195;142171;-60
2021/09/09 01:16:43;;;;;;;24.00;16.70;;;;;;;12.67;71.29;99913.64;472623;1195;142154;-61
2021/09/09 01:26:52;;;;;;;23.80;18.30;;;;;;;12.76;71.29;99911.42;472581;1195;142262;-61
2021/09/09 01:36:56;;;;;;;22.80;18.90;;;;;;;12.75;71.27;99911.50;458593;1195;141714;-60
2021/09/09 01:46:59;;;;;;;23.00;18.50;;;;;;;12.61;71.33;99911.73;460714;1195;141361;-61
2021/09/09 01:57:04;;;;;;;27.50;20.20;;;;;;;12.68;71.98;99911.45;461553;1195;141446;-61
2021/09/09 02:07:07;;;;;;;19.70;17.00;;;;;;;12.85;72.03;99911.92;472820;1193;141837;-61
2021/09/09 02:17:10;;;;;;;24.30;18.60;;;;;;;12.91;72.00;99909.76;472039;1195;142300;-61
2021/09/09 02:27:15;;;;;;;22.80;18.70;;;;;;;12.95;71.98;99904.59;473043;1182;141206;-61
2021/09/09 02:37:18;;;;;;;26.20;19.30;;;;;;;12.94;72.06;99897.78;472891;1194;142247;-61
2021/09/09 02:47:22;;;;;;;27.70;18.50;;;;;;;12.93;72.16;99893.79;471438;1195;141978;-61
2021/09/09 02:57:25;;;;;;;21.30;18.00;;;;;;;12.89;72.28;99885.80;472825;1193;141580;-61
2021/09/09 03:07:28;;;;;;;19.00;16.90;;;;;;;12.85;72.49;99879.55;472867;1193;141967;-61
2021/09/09 03:17:33;;;;;;;23.70;18.40;;;;;;;12.82;72.60;99881.91;469108;1195;142675;-60
2021/09/09 03:27:36;;;;;;;21.10;17.90;;;;;;;12.76;72.67;99885.81;469248;1195;141609;-61
2021/09/09 03:37:39;;;;;;;24.00;21.40;;;;;;;12.55;72.83;99884.61;472857;1194;141624;-61
2021/09/09 03:47:43;;;;;;;22.00;17.90;;;;;;;12.31;73.28;99886.89;471403;1194;141321;-61
2021/09/09 03:57:47;;;;;;;23.30;20.10;;;;;;;12.16;73.71;99885.58;468562;1193;151640;-62
2021/09/09 04:07:50;;;;;;;27.20;19.30;;;;;;;12.10;74.10;99881.94;471691;1195;142679;-61
2021/09/09 04:17:54;;;;;;;23.50;19.20;;;;;;;12.14;74.36;99880.79;472432;1195;197181;-61
2021/09/09 04:27:57;;;;;;;24.00;18.60;;;;;;;12.34;74.47;99876.67;472259;1194;141473;-62
2021/09/09 04:38:00;;;;;;;21.10;18.80;;;;;;;12.59;74.28;99876.44;464648;1195;142668;-62
2021/09/09 04:48:04;;;;;;;20.40;17.70;;;;;;;12.85;73.82;99875.70;471181;1195;142818;-61
2021/09/09 04:58:07;;;;;;;25.90;19.50;;;;;;;13.14;73.54;99867.36;472293;1195;142037;-61
2021/09/09 05:08:11;;;;;;;26.50;22.50;;;;;;;13.46;73.07;99863.92;471846;1194;142456;-62
2021/09/09 05:18:14;;;;;;;21.00;17.00;;;;;;;14.17;72.51;99869.34;472725;1194;141159;-63
2021/09/09 05:28:18;;;;;;;20.00;17.70;;;;;;;16.95;70.90;99854.95;472747;1194;141409;-63
2021/09/09 05:38:21;;;;;;;17.20;14.70;;;;;;;24.58;61.44;99840.88;472125;1191;142885;-63
2021/09/09 05:48:24;;;;;;;17.00;15.20;;;;;;;29.90;51.64;99828.21;472570;1194;141547;-64
2021/09/09 05:58:27;;;;;;;17.60;15.80;;;;;;;33.32;44.09;99817.88;472619;1194;140986;-64
2021/09/09 06:08:31;;;;;;;16.60;14.90;;;;;;;35.86;38.21;99815.73;471957;1194;141895;-64
2021/09/09 06:18:35;;;;;;;15.70;14.20;;;;;;;37.84;34.10;99813.02;472788;1194;143978;-65
2021/09/09 06:28:39;;;;;;;14.40;13.20;;;;;;;39.96;30.61;99812.99;472725;1193;141991;-71
2021/09/09 06:38:42;;;;;;;13.90;12.50;;;;;;;42.02;27.57;99805.95;472041;1190;141733;-65
2021/09/09 06:48:46;;;;;;;11.90;10.80;;;;;;;44.10;24.84;99808.22;472878;1190;141656;-66
2021/09/09 06:58:49;;;;;;;10.90;9.90;;;;;;;45.27;22.16;99808.01;471979;1193;144402;-63
2021/09/09 07:08:54;;;;;;;10.30;9.30;;;;;;;46.66;20.77;99800.33;472711;1194;141407;-66
2021/09/09 07:18:57;;;;;;;9.50;8.70;;;;;;;48.71;19.03;99799.24;472788;1194;141682;-66
2021/09/09 07:29:00;;;;;;;10.00;9.20;;;;;;;49.91;17.52;99800.06;471952;1194;197203;-60
2021/09/09 07:39:04;;;;;;;9.00;8.20;;;;;;;51.13;15.96;99798.27;472706;1194;143187;-62
2021/09/09 07:49:08;;;;;;;7.90;7.30;;;;;;;51.69;14.78;99802.00;472723;1194;141242;-64
2021/09/09 07:59:13;;;;;;;15.70;8.40;;;;;;;52.52;13.94;99804.63;471937;1194;141352;-69
2021/09/09 08:09:17;;;;;;;9.60;8.70;;;;;;;53.08;12.94;99798.08;473008;1183;184164;-65
2021/09/09 08:19:20;;;;;;;12.00;9.80;;;;;;;53.69;12.04;99795.10;472792;1193;141264;-66
2021/09/09 08:29:24;;;;;;;10.00;9.40;;;;;;;54.09;11.30;99790.18;472021;1194;141190;-64
2021/09/09 08:39:27;;;;;;;6.80;3.70;;;;;;;53.22;10.99;99786.91;472780;1193;142978;-61
2021/09/09 08:49:30;;;;;;;4.30;3.90;;;;;;;45.10;12.92;99786.85;472805;1194;140794;-64
2021/09/09 08:59:34;;;;;;;5.60;3.80;;;;;;;38.51;15.92;99787.51;471951;1194;141295;-61
2021/09/09 09:09:37;;;;;;;4.00;3.20;;;;;;;34.52;18.76;99786.86;467167;1194;141299;-60
2021/09/09 09:19:42;;;;;;;6.40;3.90;;;;;;;32.33;20.42;99781.46;448694;1194;10001918;-58
2021/09/09 09:30:00;;;;;;;6.50;2.90;;;;;;;31.30;21.68;99775.13;457924;1194;141246;-62
2021/09/09 09:40:09;;;;;;;2.80;2.60;;;;;;;29.97;22.63;99769.70;472884;1194;141883;-67
2021/09/09 09:50:21;;;;;;;9.10;3.20;;;;;;;28.89;23.43;99768.14;471915;1194;141606;-60
2021/09/09 10:00:25;;;;;;;5.20;2.50;;;;;;;28.32;24.52;99758.52;472983;1194;141296;-62
2021/09/09 10:10:28;;;;;;;5.70;3.10;;;;;;;27.69;24.45;99749.08;470205;1194;142895;-61
2021/09/09 10:20:36;;;;;;;4.10;3.30;;;;;;;27.11;25.33;99745.39;455326;1195;141081;-67
2021/09/09 10:31:03;;;;;;;5.80;2.80;;;;;;;26.53;25.77;99738.70;459588;1194;140174;-58
2021/09/09 10:41:06;;;;;;;4.30;3.50;;;;;;;26.07;26.25;99729.85;472073;1194;142226;-64
2021/09/09 10:51:12;;;;;;;4.10;2.90;;;;;;;25.76;27.04;99725.03;472922;1194;140920;-56
2021/09/09 11:01:15;;;;;;;6.70;3.00;;;;;;;25.48;27.31;99720.23;472551;1194;141217;-56
2021/09/09 11:11:22;;;;;;;5.40;3.20;;;;;;;25.18;27.56;99712.02;471996;1194;141749;-57
2021/09/09 11:21:28;;;;;;;6.00;2.80;;;;;;;25.11;27.71;99705.24;470976;1194;140775;-56
2021/09/09 11:31:33;;;;;;;5.80;3.60;;;;;;;24.92;27.64;99688.36;469035;1194;144446;-55
2021/09/09 11:41:39;;;;;;;5.30;2.90;;;;;;;24.75;28.10;99676.46;467258;1194;142592;-59
2021/09/09 11:51:44;;;;;;;8.20;4.00;;;;;;;24.72;28.45;99669.27;472743;1194;141437;-60
2021/09/09 12:01:50;;;;;;;4.50;4.00;;;;;;;24.71;28.58;99664.48;468127;1194;140813;-59
2021/09/09 12:12:05;;;;;;;4.50;3.20;;;;;;;24.71;28.91;99662.45;471306;1190;141024;-60
2021/09/09 12:22:08;;;;;;;6.00;3.00;;;;;;;24.63;29.23;99654.42;472753;1194;140620;-59
2021/09/09 12:32:29;;;;;;;5.10;3.50;;;;;;;24.62;29.37;99647.65;462748;1194;141710;-58
2021/09/09 12:42:32;;;;;;;4.30;3.50;;;;;;;24.58;29.68;99637.34;457245;1194;141202;-61
2021/09/09 12:52:36;;;;;;;5.20;3.90;;;;;;;24.55;30.14;99631.71;460966;1194;140358;-61
2021/09/09 13:02:39;;;;;;;6.90;4.20;;;;;;;24.40;30.09;99616.71;467123;1194;142143;-61
2021/09/09 13:12:43;;;;;;;3.90;3.50;;;;;;;24.32;30.39;99608.46;471702;1194;142053;-61
2021/09/09 13:22:46;;;;;;;3.00;2.80;;;;;;;24.36;30.48;99604.87;472420;1191;140962;-64
2021/09/09 13:32:49;;;;;;;4.20;3.50;;;;;;;24.37;30.36;99594.55;472942;1194;140251;-59
2021/09/09 13:42:52;;;;;;;8.40;3.50;;;;;;;24.34;30.52;99582.89;468183;1194;140339;-59
2021/09/09 13:52:55;;;;;;;7.20;3.70;;;;;;;24.32;30.76;99572.77;472151;1194;141191;-63
2021/09/09 14:02:58;;;;;;;5.50;3.50;;;;;;;24.32;30.88;99565.41;472930;1194;140793;-61
2021/09/09 14:13:14;;;;;;;4.30;3.70;;;;;;;24.30;30.45;99557.25;472890;1194;141323;-61
2021/09/09 14:23:17;;;;;;;6.60;3.20;;;;;;;24.33;30.71;99546.19;472011;1193;142541;-68
2021/09/09 14:33:20;;;;;;;5.70;3.20;;;;;;;24.28;30.42;99544.73;467644;1184;145296;-61
2021/09/09 14:43:23;;;;;;;3.60;3.00;;;;;;;24.19;30.26;99540.51;472941;1194;141218;-60
2021/09/09 14:53:26;;;;;;;6.20;4.30;;;;;;;24.07;30.46;99532.19;472084;1194;142316;-60
2021/09/09 15:03:30;;;;;;;6.70;4.10;;;;;;;23.99;30.57;99528.81;473015;1183;141340;-58
2021/09/09 15:13:35;;;;;;;3.70;3.00;;;;;;;23.88;30.28;99528.76;466549;1194;140791;-57
2021/09/09 15:23:38;;;;;;;7.00;3.50;;;;;;;23.72;30.27;99520.56;472136;1195;141678;-61
2021/09/09 15:33:42;;;;;;;3.70;2.50;;;;;;;23.58;30.20;99513.66;469995;1195;141118;-60
2021/09/09 15:43:45;;;;;;;4.30;3.70;;;;;;;23.47;30.83;99506.05;471813;1195;141232;-61
2021/09/09 15:53:48;;;;;;;8.60;4.50;;;;;;;23.27;31.39;99495.52;472956;1194;141321;-61
2021/09/09 16:03:52;;;;;;;4.70;3.10;;;;;;;23.05;32.03;99488.44;472922;1194;141859;-63
2021/09/09 16:13:56;;;;;;;6.50;4.20;;;;;;;22.80;33.00;99486.53;472104;1195;141630;-61
2021/09/09 16:23:59;;;;;;;11.00;4.50;;;;;;;22.49;33.97;99481.23;472887;1193;141036;-61
2021/09/09 16:34:02;;;;;;;10.90;4.50;;;;;;;22.15;35.05;99485.14;472746;1194;141574;-61
2021/09/09 16:44:05;;;;;;;12.50;5.20;;;;;;;21.74;36.55;99483.79;472045;1194;140752;-61
2021/09/09 16:54:09;;;;;;;17.40;5.50;;;;;;;21.24;38.10;99480.60;456815;1194;20001578;-63
2021/09/09 17:04:14;;;;;;;18.80;7.10;;;;;;;20.69;40.18;99483.22;471534;1194;144319;-63
2021/09/09 17:14:19;;;;;;;11.50;5.50;;;;;;;20.08;41.78;99486.77;466095;1195;141830;-62
2021/09/09 17:24:23;;;;;;;10.90;5.70;;;;;;;19.52;42.87;99487.75;465087;1195;141558;-62
2021/09/09 17:34:26;;;;;;;20.20;8.10;;;;;;;19.06;43.88;99492.09;458920;1193;141938;-61
2021/09/09 17:44:30;;;;;;;11.40;5.90;;;;;;;18.60;44.70;99501.54;464843;1193;141950;-62
2021/09/09 17:54:33;;;;;;;12.70;7.30;;;;;;;18.26;45.59;99508.32;464152;1195;141279;-64
2021/09/09 18:04:37;;;;;;;13.20;8.10;;;;;;;17.92;46.92;99508.33;468960;1194;141479;-60
2021/09/09 18:14:42;;;;;;;15.90;7.90;;;;;;;17.64;47.94;99516.77;469822;1193;140984;-62
2021/09/09 18:24:45;;;;;;;9.80;8.00;;;;;;;17.39;48.91;99516.65;472885;1194;140949;-61
2021/09/09 18:34:48;;;;;;;12.40;8.60;;;;;;;17.15;49.64;99517.78;466416;1183;140490;-61
2021/09/09 18:44:51;;;;;;;15.10;9.70;;;;;;;16.94;50.37;99523.63;472616;1193;141550;-61
2021/09/09 18:54:56;;;;;;;16.50;11.80;;;;;;;16.78;50.94;99528.10;472313;1194;140974;-60
2021/09/09 19:05:00;;;;;;;16.90;10.60;;;;;;;16.64;51.42;99533.51;471458;1190;141396;-62
2021/09/09 19:15:05;;;;;;;12.90;10.60;;;;;;;16.54;51.95;99538.89;468762;1194;141892;-62
2021/09/09 19:25:11;;;;;;;13.20;10.00;;;;;;;16.39;52.54;99542.49;472662;1194;141687;-61
2021/09/09 19:35:14;;;;;;;16.10;11.10;;;;;;;16.19;53.16;99546.01;471903;1194;140740;-61
2021/09/09 19:45:18;;;;;;;22.00;12.50;;;;;;;15.97;53.93;99543.63;466490;1193;140941;-60
2021/09/09 19:55:22;;;;;;;16.50;11.50;;;;;;;15.77;54.49;99549.73;462211;1194;143418;-60
2021/09/09 20:05:26;;;;;;;14.80;10.80;;;;;;;15.54;55.21;99545.38;471961;1191;141496;-60
2021/09/09 20:15:29;;;;;;;16.60;11.70;;;;;;;15.36;55.80;99548.82;472246;1194;141431;-58
2021/09/09 20:25:32;;;;;;;14.70;10.20;;;;;;;15.15;56.44;99552.17;472605;1194;141312;-59
2021/09/09 20:35:36;;;;;;;13.90;10.90;;;;;;;15.07;56.83;99549.45;467056;1191;141523;-62
2021/09/09 20:45:40;;;;;;;12.80;10.70;;;;;;;14.91;57.16;99554.87;464063;1194;141661;-61
2021/09/09 20:55:43;;;;;;;15.20;11.60;;;;;;;14.78;57.68;99556.63;472625;1194;142567;-62
2021/09/09 21:05:46;;;;;;;22.90;11.40;;;;;;;14.77;58.04;99556.39;470541;1194;142221;-61
2021/09/09 21:15:50;;;;;;;15.70;11.30;;;;;;;14.70;58.24;99554.79;469301;1194;141266;-62
2021/09/09 21:25:53;;;;;;;14.70;12.20;;;;;;;14.47;58.62;99547.62;471798;1194;196435;-60
2021/09/09 21:35:56;;;;;;;19.60;12.10;;;;;;;14.25;59.13;99555.73;472605;1191;141278;-60
2021/09/09 21:45:59;;;;;;;19.10;13.50;;;;;;;14.05;59.72;99555.02;472332;1194;143210;-61
2021/09/09 21:56:03;;;;;;;15.10;12.80;;;;;;;13.97;60.16;99563.75;471554;1194;142904;-61
2021/09/09 22:06:06;;;;;;;17.40;11.80;;;;;;;13.98;60.36;99561.41;472735;1194;144925;-59
2021/09/09 22:16:10;;;;;;;18.10;12.40;;;;;;;13.89;60.72;99562.42;472474;1194;141639;-59
2021/09/09 22:26:13;;;;;;;15.20;12.00;;;;;;;13.71;61.14;99561.14;471915;1194;141570;-61
2021/09/09 22:36:16;;;;;;;14.10;12.60;;;;;;;13.56;61.50;99561.29;464144;1194;141615;-59
2021/09/09 22:46:20;;;;;;;13.70;10.30;;;;;;;13.39;62.06;99551.82;466818;1194;141737;-59
2021/09/09 22:56:24;;;;;;;14.50;11.30;;;;;;;13.30;62.62;99548.77;457707;1194;141340;-60
2021/09/09 23:06:28;;;;;;;12.80;11.50;;;;;;;13.29;62.87;99540.40;459130;1194;143216;-57
2021/09/09 23:16:31;;;;;;;13.00;11.40;;;;;;;13.18;62.93;99538.98;470459;1194;141014;-59
2021/09/09 23:26:34;;;;;;;15.90;11.40;;;;;;;12.94;63.18;99539.83;471956;1194;141242;-59
2021/09/09 23:36:37;;;;;;;13.00;10.20;;;;;;;12.71;63.61;99538.39;470037;1194;142387;-59
2021/09/09 23:46:41;;;;;;;16.10;11.40;;;;;;;12.54;64.16;99533.27;472834;1194;144812;-59
2021/09/09 23:56:44;;;;;;;15.50;10.70;;;;;;;12.56;64.25;99539.31;469376;1194;142591;-59
